KCDH/CDH METAR and TAF weather

Enter ICAO airport designator
Station Type Date Time Source
KCDH METAR 2019/06/17 12:55 UTC NOAA

KCDH 171255Z AUTO 00000KT 9SM CLR 20/18 A2992 RMK AO2


Station Type Date Time Source
KCDH Decoded METAR 2019/06/17 12:55 UTC NOAA

Camden / Harrell Field, AR, United States (KCDH) 33-37N 092-46W
Jun 17, 2019 - 08:55 AM EDT / 2019.06.17 1255 UTC
Wind: Calm:0
Visibility: 9 mile(s):0
Sky conditions: clear
Temperature: 68 F (20 C)
Dew Point: 64 F (18 C)
Relative Humidity: 88%
Pressure (altimeter): 29.92 in. Hg (1013 hPa)
ob: KCDH 171255Z AUTO 00000KT 9SM CLR 20/18 A2992 RMK AO2
cycle: 13

Station Type Date Time Source
KCDH TAF UTC NOAA

Error!

Example: see airport list